sensor_id;sensor_type;location;lat;lon;timestamp;P1;durP1;ratioP1;P2;durP2;ratioP2
17648;SDS011;8943;51.110;-4.158;2022-09-13T00:00:48;4.80;;;1.20;;
17648;SDS011;8943;51.110;-4.158;2022-09-13T00:03:18;1.60;;;1.07;;
17648;SDS011;8943;51.110;-4.158;2022-09-13T00:05:47;3.33;;;1.10;;
17648;SDS011;8943;51.110;-4.158;2022-09-13T00:08:16;2.23;;;1.03;;
17648;SDS011;8943;51.110;-4.158;2022-09-13T00:10:44;2.97;;;1.10;;
17648;SDS011;8943;51.110;-4.158;2022-09-13T00:13:15;2.63;;;1.00;;
17648;SDS011;8943;51.110;-4.158;2022-09-13T00:15:44;2.43;;;1.13;;
17648;SDS011;8943;51.110;-4.158;2022-09-13T00:18:13;2.53;;;1.00;;
17648;SDS011;8943;51.110;-4.158;2022-09-13T00:20:42;2.07;;;1.00;;
17648;SDS011;8943;51.110;-4.158;2022-09-13T00:23:10;2.97;;;1.00;;
17648;SDS011;8943;51.110;-4.158;2022-09-13T00:25:39;2.50;;;1.10;;
17648;SDS011;8943;51.110;-4.158;2022-09-13T00:28:07;2.50;;;1.10;;
17648;SDS011;8943;51.110;-4.158;2022-09-13T00:30:37;2.60;;;1.23;;
17648;SDS011;8943;51.110;-4.158;2022-09-13T00:33:05;2.27;;;1.00;;
17648;SDS011;8943;51.110;-4.158;2022-09-13T00:35:33;7.73;;;1.47;;
17648;SDS011;8943;51.110;-4.158;2022-09-13T00:38:01;3.07;;;1.20;;
17648;SDS011;8943;51.110;-4.158;2022-09-13T00:40:29;3.70;;;1.40;;
17648;SDS011;8943;51.110;-4.158;2022-09-13T00:42:57;1.70;;;1.07;;
17648;SDS011;8943;51.110;-4.158;2022-09-13T00:45:25;5.93;;;1.70;;
17648;SDS011;8943;51.110;-4.158;2022-09-13T00:47:56;3.80;;;1.63;;
17648;SDS011;8943;51.110;-4.158;2022-09-13T00:50:28;3.30;;;1.30;;
17648;SDS011;8943;51.110;-4.158;2022-09-13T00:53:03;2.97;;;1.57;;
17648;SDS011;8943;51.110;-4.158;2022-09-13T00:55:34;2.43;;;1.73;;
17648;SDS011;8943;51.110;-4.158;2022-09-13T00:58:09;3.47;;;1.53;;
17648;SDS011;8943;51.110;-4.158;2022-09-13T01:00:41;2.90;;;1.70;;
17648;SDS011;8943;51.110;-4.158;2022-09-13T01:03:12;3.67;;;1.77;;
17648;SDS011;8943;51.110;-4.158;2022-09-13T01:05:45;3.30;;;1.90;;
17648;SDS011;8943;51.110;-4.158;2022-09-13T01:08:15;2.40;;;1.40;;
17648;SDS011;8943;51.110;-4.158;2022-09-13T01:10:48;4.87;;;1.70;;
17648;SDS011;8943;51.110;-4.158;2022-09-13T01:13:19;6.73;;;2.03;;
17648;SDS011;8943;51.110;-4.158;2022-09-13T01:15:49;4.27;;;1.30;;
17648;SDS011;8943;51.110;-4.158;2022-09-13T01:18:19;2.70;;;1.37;;
17648;SDS011;8943;51.110;-4.158;2022-09-13T01:20:59;2.17;;;1.37;;
17648;SDS011;8943;51.110;-4.158;2022-09-13T01:23:54;3.23;;;1.50;;
17648;SDS011;8943;51.110;-4.158;2022-09-13T01:26:50;3.73;;;1.83;;
17648;SDS011;8943;51.110;-4.158;2022-09-13T01:29:36;5.20;;;1.97;;
17648;SDS011;8943;51.110;-4.158;2022-09-13T01:32:19;4.53;;;2.00;;
17648;SDS011;8943;51.110;-4.158;2022-09-13T01:34:56;3.07;;;2.00;;
17648;SDS011;8943;51.110;-4.158;2022-09-13T01:37:45;2.83;;;1.87;;
17648;SDS011;8943;51.110;-4.158;2022-09-13T01:40:26;3.67;;;2.00;;
17648;SDS011;8943;51.110;-4.158;2022-09-13T01:43:19;4.80;;;2.27;;
17648;SDS011;8943;51.110;-4.158;2022-09-13T01:45:59;6.40;;;2.13;;
17648;SDS011;8943;51.110;-4.158;2022-09-13T01:48:35;4.03;;;2.33;;
17648;SDS011;8943;51.110;-4.158;2022-09-13T01:51:18;7.10;;;2.77;;
17648;SDS011;8943;51.110;-4.158;2022-09-13T01:53:55;4.40;;;2.63;;
17648;SDS011;8943;51.110;-4.158;2022-09-13T01:56:32;6.57;;;3.03;;
17648;SDS011;8943;51.110;-4.158;2022-09-13T01:59:09;3.53;;;2.50;;
17648;SDS011;8943;51.110;-4.158;2022-09-13T02:01:41;4.27;;;2.93;;
17648;SDS011;8943;51.110;-4.158;2022-09-13T02:04:18;5.23;;;3.33;;
17648;SDS011;8943;51.110;-4.158;2022-09-13T02:06:51;6.90;;;3.40;;
17648;SDS011;8943;51.110;-4.158;2022-09-13T02:09:29;6.60;;;2.97;;
17648;SDS011;8943;51.110;-4.158;2022-09-13T02:12:02;6.27;;;3.40;;
17648;SDS011;8943;51.110;-4.158;2022-09-13T02:14:38;6.13;;;3.13;;
17648;SDS011;8943;51.110;-4.158;2022-09-13T02:17:10;7.03;;;3.30;;
17648;SDS011;8943;51.110;-4.158;2022-09-13T02:19:46;7.40;;;3.30;;
17648;SDS011;8943;51.110;-4.158;2022-09-13T02:22:19;5.57;;;3.00;;
17648;SDS011;8943;51.110;-4.158;2022-09-13T02:24:53;5.63;;;3.70;;
17648;SDS011;8943;51.110;-4.158;2022-09-13T02:27:24;5.57;;;3.37;;
17648;SDS011;8943;51.110;-4.158;2022-09-13T02:29:56;4.93;;;3.07;;
17648;SDS011;8943;51.110;-4.158;2022-09-13T02:32:29;5.53;;;3.03;;
17648;SDS011;8943;51.110;-4.158;2022-09-13T02:35:03;4.57;;;2.90;;
17648;SDS011;8943;51.110;-4.158;2022-09-13T02:37:35;4.63;;;2.80;;
17648;SDS011;8943;51.110;-4.158;2022-09-13T02:40:07;5.67;;;2.80;;
17648;SDS011;8943;51.110;-4.158;2022-09-13T02:42:41;5.60;;;3.10;;
17648;SDS011;8943;51.110;-4.158;2022-09-13T02:45:11;4.00;;;2.60;;
17648;SDS011;8943;51.110;-4.158;2022-09-13T02:47:42;10.13;;;3.77;;
17648;SDS011;8943;51.110;-4.158;2022-09-13T02:50:20;5.57;;;2.87;;
17648;SDS011;8943;51.110;-4.158;2022-09-13T02:53:00;5.57;;;3.00;;
17648;SDS011;8943;51.110;-4.158;2022-09-13T02:55:37;7.43;;;2.87;;
17648;SDS011;8943;51.110;-4.158;2022-09-13T02:58:13;6.77;;;3.10;;
17648;SDS011;8943;51.110;-4.158;2022-09-13T03:00:52;5.03;;;2.83;;
17648;SDS011;8943;51.110;-4.158;2022-09-13T03:03:21;6.40;;;2.97;;
17648;SDS011;8943;51.110;-4.158;2022-09-13T03:05:52;5.17;;;2.70;;
17648;SDS011;8943;51.110;-4.158;2022-09-13T03:08:27;5.60;;;2.77;;
17648;SDS011;8943;51.110;-4.158;2022-09-13T03:10:59;4.70;;;2.80;;
17648;SDS011;8943;51.110;-4.158;2022-09-13T03:13:45;4.47;;;3.07;;
17648;SDS011;8943;51.110;-4.158;2022-09-13T03:16:36;5.53;;;3.23;;
17648;SDS011;8943;51.110;-4.158;2022-09-13T03:19:26;6.40;;;3.20;;
17648;SDS011;8943;51.110;-4.158;2022-09-13T03:22:14;4.33;;;2.60;;
17648;SDS011;8943;51.110;-4.158;2022-09-13T03:24:55;7.67;;;3.00;;
17648;SDS011;8943;51.110;-4.158;2022-09-13T03:27:33;3.47;;;2.60;;
17648;SDS011;8943;51.110;-4.158;2022-09-13T03:30:06;5.10;;;3.07;;
17648;SDS011;8943;51.110;-4.158;2022-09-13T03:32:38;7.40;;;2.80;;
17648;SDS011;8943;51.110;-4.158;2022-09-13T03:35:13;4.63;;;3.70;;
17648;SDS011;8943;51.110;-4.158;2022-09-13T03:37:52;5.80;;;3.43;;
17648;SDS011;8943;51.110;-4.158;2022-09-13T03:40:27;5.83;;;3.20;;
17648;SDS011;8943;51.110;-4.158;2022-09-13T03:43:07;7.83;;;2.97;;
17648;SDS011;8943;51.110;-4.158;2022-09-13T03:45:40;3.83;;;2.70;;
17648;SDS011;8943;51.110;-4.158;2022-09-13T03:48:11;7.30;;;3.27;;
17648;SDS011;8943;51.110;-4.158;2022-09-13T03:50:41;4.83;;;2.83;;
17648;SDS011;8943;51.110;-4.158;2022-09-13T03:53:14;6.03;;;2.93;;
17648;SDS011;8943;51.110;-4.158;2022-09-13T03:55:47;4.87;;;2.80;;
17648;SDS011;8943;51.110;-4.158;2022-09-13T03:58:16;10.60;;;3.43;;
17648;SDS011;8943;51.110;-4.158;2022-09-13T04:00:45;3.87;;;2.50;;
17648;SDS011;8943;51.110;-4.158;2022-09-13T04:03:14;3.47;;;2.80;;
17648;SDS011;8943;51.110;-4.158;2022-09-13T04:05:42;3.63;;;2.67;;
17648;SDS011;8943;51.110;-4.158;2022-09-13T04:08:11;4.00;;;3.07;;
17648;SDS011;8943;51.110;-4.158;2022-09-13T04:10:40;4.30;;;3.30;;
17648;SDS011;8943;51.110;-4.158;2022-09-13T04:13:08;7.00;;;3.40;;
17648;SDS011;8943;51.110;-4.158;2022-09-13T04:15:36;3.47;;;2.43;;
17648;SDS011;8943;51.110;-4.158;2022-09-13T04:18:05;6.07;;;2.67;;
17648;SDS011;8943;51.110;-4.158;2022-09-13T04:20:34;4.50;;;3.33;;
17648;SDS011;8943;51.110;-4.158;2022-09-13T04:23:02;4.47;;;3.20;;
17648;SDS011;8943;51.110;-4.158;2022-09-13T04:25:30;7.70;;;3.60;;
17648;SDS011;8943;51.110;-4.158;2022-09-13T04:28:00;3.30;;;2.63;;
17648;SDS011;8943;51.110;-4.158;2022-09-13T04:30:28;6.37;;;3.17;;
17648;SDS011;8943;51.110;-4.158;2022-09-13T04:32:57;3.40;;;2.40;;
17648;SDS011;8943;51.110;-4.158;2022-09-13T04:35:25;5.83;;;3.20;;
17648;SDS011;8943;51.110;-4.158;2022-09-13T04:37:54;4.90;;;3.00;;
17648;SDS011;8943;51.110;-4.158;2022-09-13T04:40:23;4.40;;;3.23;;
17648;SDS011;8943;51.110;-4.158;2022-09-13T04:42:51;4.80;;;2.87;;
17648;SDS011;8943;51.110;-4.158;2022-09-13T04:45:20;2.53;;;2.33;;
17648;SDS011;8943;51.110;-4.158;2022-09-13T04:47:50;3.10;;;2.67;;
17648;SDS011;8943;51.110;-4.158;2022-09-13T04:50:19;3.30;;;2.40;;
17648;SDS011;8943;51.110;-4.158;2022-09-13T04:52:47;4.47;;;2.57;;
17648;SDS011;8943;51.110;-4.158;2022-09-13T04:55:15;5.27;;;2.37;;
17648;SDS011;8943;51.110;-4.158;2022-09-13T04:57:43;3.77;;;2.83;;
17648;SDS011;8943;51.110;-4.158;2022-09-13T05:00:11;3.50;;;3.20;;
17648;SDS011;8943;51.110;-4.158;2022-09-13T05:02:41;7.03;;;3.70;;
17648;SDS011;8943;51.110;-4.158;2022-09-13T05:05:09;9.90;;;4.07;;
17648;SDS011;8943;51.110;-4.158;2022-09-13T05:07:37;4.87;;;3.93;;
17648;SDS011;8943;51.110;-4.158;2022-09-13T05:10:06;6.40;;;4.00;;
17648;SDS011;8943;51.110;-4.158;2022-09-13T05:12:35;8.40;;;4.57;;
17648;SDS011;8943;51.110;-4.158;2022-09-13T05:15:03;5.03;;;4.53;;
17648;SDS011;8943;51.110;-4.158;2022-09-13T05:17:32;7.10;;;3.90;;
17648;SDS011;8943;51.110;-4.158;2022-09-13T05:20:02;4.87;;;4.07;;
17648;SDS011;8943;51.110;-4.158;2022-09-13T05:22:31;4.97;;;4.47;;
17648;SDS011;8943;51.110;-4.158;2022-09-13T05:24:59;4.87;;;4.37;;
17648;SDS011;8943;51.110;-4.158;2022-09-13T05:27:27;7.23;;;4.57;;
17648;SDS011;8943;51.110;-4.158;2022-09-13T05:29:55;8.43;;;5.03;;
17648;SDS011;8943;51.110;-4.158;2022-09-13T05:32:23;4.77;;;4.33;;
17648;SDS011;8943;51.110;-4.158;2022-09-13T05:34:51;6.83;;;4.97;;
17648;SDS011;8943;51.110;-4.158;2022-09-13T05:37:21;5.13;;;4.63;;
17648;SDS011;8943;51.110;-4.158;2022-09-13T05:39:49;7.60;;;4.97;;
17648;SDS011;8943;51.110;-4.158;2022-09-13T05:42:36;6.83;;;4.67;;
17648;SDS011;8943;51.110;-4.158;2022-09-13T05:45:05;5.83;;;4.90;;
17648;SDS011;8943;51.110;-4.158;2022-09-13T05:47:34;4.50;;;4.07;;
17648;SDS011;8943;51.110;-4.158;2022-09-13T05:50:02;5.37;;;4.83;;
17648;SDS011;8943;51.110;-4.158;2022-09-13T05:52:38;7.40;;;4.77;;
17648;SDS011;8943;51.110;-4.158;2022-09-13T05:55:08;7.20;;;5.00;;
17648;SDS011;8943;51.110;-4.158;2022-09-13T05:57:36;5.60;;;5.00;;
17648;SDS011;8943;51.110;-4.158;2022-09-13T06:00:05;11.67;;;5.33;;
17648;SDS011;8943;51.110;-4.158;2022-09-13T06:02:34;8.80;;;5.10;;
17648;SDS011;8943;51.110;-4.158;2022-09-13T06:05:02;6.97;;;5.37;;
17648;SDS011;8943;51.110;-4.158;2022-09-13T06:07:31;6.83;;;5.43;;
17648;SDS011;8943;51.110;-4.158;2022-09-13T06:10:02;8.53;;;5.13;;
17648;SDS011;8943;51.110;-4.158;2022-09-13T06:12:30;5.10;;;4.60;;
17648;SDS011;8943;51.110;-4.158;2022-09-13T06:14:58;6.10;;;4.60;;
17648;SDS011;8943;51.110;-4.158;2022-09-13T06:17:26;7.07;;;4.57;;
17648;SDS011;8943;51.110;-4.158;2022-09-13T06:19:55;6.03;;;4.63;;
17648;SDS011;8943;51.110;-4.158;2022-09-13T06:22:23;8.23;;;5.00;;
17648;SDS011;8943;51.110;-4.158;2022-09-13T06:24:51;6.67;;;4.33;;
17648;SDS011;8943;51.110;-4.158;2022-09-13T06:27:20;6.00;;;4.67;;
17648;SDS011;8943;51.110;-4.158;2022-09-13T06:29:49;7.27;;;4.47;;
17648;SDS011;8943;51.110;-4.158;2022-09-13T06:32:17;7.57;;;4.20;;
17648;SDS011;8943;51.110;-4.158;2022-09-13T06:34:45;7.63;;;4.63;;
17648;SDS011;8943;51.110;-4.158;2022-09-13T06:37:13;5.37;;;3.97;;
17648;SDS011;8943;51.110;-4.158;2022-09-13T06:39:41;5.43;;;3.40;;
17648;SDS011;8943;51.110;-4.158;2022-09-13T06:42:09;6.20;;;3.70;;
17648;SDS011;8943;51.110;-4.158;2022-09-13T06:44:39;3.97;;;3.23;;
17648;SDS011;8943;51.110;-4.158;2022-09-13T06:47:07;6.70;;;3.60;;
17648;SDS011;8943;51.110;-4.158;2022-09-13T06:49:35;8.83;;;3.27;;
17648;SDS011;8943;51.110;-4.158;2022-09-13T06:52:03;5.53;;;3.07;;
17648;SDS011;8943;51.110;-4.158;2022-09-13T06:54:32;4.57;;;2.70;;
17648;SDS011;8943;51.110;-4.158;2022-09-13T06:57:00;4.20;;;2.47;;
17648;SDS011;8943;51.110;-4.158;2022-09-13T06:59:28;3.93;;;2.40;;
17648;SDS011;8943;51.110;-4.158;2022-09-13T07:01:58;3.67;;;2.43;;
17648;SDS011;8943;51.110;-4.158;2022-09-13T07:04:26;5.53;;;2.60;;
17648;SDS011;8943;51.110;-4.158;2022-09-13T07:06:57;2.87;;;1.90;;
17648;SDS011;8943;51.110;-4.158;2022-09-13T07:09:25;7.07;;;2.23;;
17648;SDS011;8943;51.110;-4.158;2022-09-13T07:11:54;2.50;;;2.20;;
17648;SDS011;8943;51.110;-4.158;2022-09-13T07:14:23;3.67;;;2.27;;
17648;SDS011;8943;51.110;-4.158;2022-09-13T07:16:52;2.87;;;2.30;;
17648;SDS011;8943;51.110;-4.158;2022-09-13T07:19:22;8.83;;;2.00;;
17648;SDS011;8943;51.110;-4.158;2022-09-13T07:21:51;3.53;;;2.13;;
17648;SDS011;8943;51.110;-4.158;2022-09-13T07:24:20;5.70;;;2.40;;
17648;SDS011;8943;51.110;-4.158;2022-09-13T07:26:49;7.63;;;2.43;;
17648;SDS011;8943;51.110;-4.158;2022-09-13T07:29:18;5.27;;;2.10;;
17648;SDS011;8943;51.110;-4.158;2022-09-13T07:31:49;3.43;;;2.03;;
17648;SDS011;8943;51.110;-4.158;2022-09-13T07:34:20;3.60;;;1.40;;
17648;SDS011;8943;51.110;-4.158;2022-09-13T07:36:51;7.27;;;1.90;;
17648;SDS011;8943;51.110;-4.158;2022-09-13T07:39:19;5.83;;;1.80;;
17648;SDS011;8943;51.110;-4.158;2022-09-13T07:41:48;4.30;;;2.07;;
17648;SDS011;8943;51.110;-4.158;2022-09-13T07:44:19;2.17;;;1.40;;
17648;SDS011;8943;51.110;-4.158;2022-09-13T07:46:48;3.77;;;1.90;;
17648;SDS011;8943;51.110;-4.158;2022-09-13T07:49:17;5.20;;;1.70;;
17648;SDS011;8943;51.110;-4.158;2022-09-13T07:51:47;5.93;;;1.70;;
17648;SDS011;8943;51.110;-4.158;2022-09-13T07:54:17;6.77;;;1.40;;
17648;SDS011;8943;51.110;-4.158;2022-09-13T07:56:46;3.13;;;1.87;;
17648;SDS011;8943;51.110;-4.158;2022-09-13T07:59:17;6.53;;;1.87;;
17648;SDS011;8943;51.110;-4.158;2022-09-13T08:01:47;6.53;;;1.90;;
17648;SDS011;8943;51.110;-4.158;2022-09-13T08:10:05;6.63;;;2.00;;
17648;SDS011;8943;51.110;-4.158;2022-09-13T08:12:33;7.23;;;2.40;;
17648;SDS011;8943;51.110;-4.158;2022-09-13T08:15:05;6.93;;;2.23;;
17648;SDS011;8943;51.110;-4.158;2022-09-13T08:17:33;8.87;;;2.37;;
17648;SDS011;8943;51.110;-4.158;2022-09-13T08:20:02;7.53;;;2.33;;
17648;SDS011;8943;51.110;-4.158;2022-09-13T08:22:31;6.67;;;2.30;;
17648;SDS011;8943;51.110;-4.158;2022-09-13T08:24:59;6.23;;;2.10;;
17648;SDS011;8943;51.110;-4.158;2022-09-13T08:27:29;10.40;;;2.50;;
17648;SDS011;8943;51.110;-4.158;2022-09-13T08:29:58;9.47;;;3.80;;
17648;SDS011;8943;51.110;-4.158;2022-09-13T08:32:26;7.23;;;3.57;;
17648;SDS011;8943;51.110;-4.158;2022-09-13T08:34:54;10.83;;;3.10;;
17648;SDS011;8943;51.110;-4.158;2022-09-13T08:37:23;3.87;;;2.20;;
17648;SDS011;8943;51.110;-4.158;2022-09-13T08:39:51;6.97;;;2.40;;
17648;SDS011;8943;51.110;-4.158;2022-09-13T08:42:22;5.30;;;2.10;;
17648;SDS011;8943;51.110;-4.158;2022-09-13T08:45:02;11.60;;;2.57;;
17648;SDS011;8943;51.110;-4.158;2022-09-13T08:47:33;14.37;;;3.20;;
17648;SDS011;8943;51.110;-4.158;2022-09-13T08:50:11;8.83;;;2.87;;
17648;SDS011;8943;51.110;-4.158;2022-09-13T08:52:45;11.03;;;2.60;;
17648;SDS011;8943;51.110;-4.158;2022-09-13T08:55:27;7.63;;;2.60;;
17648;SDS011;8943;51.110;-4.158;2022-09-13T08:58:14;7.93;;;2.77;;
17648;SDS011;8943;51.110;-4.158;2022-09-13T09:00:58;4.97;;;2.60;;
17648;SDS011;8943;51.110;-4.158;2022-09-13T09:03:31;5.30;;;2.17;;
17648;SDS011;8943;51.110;-4.158;2022-09-13T09:06:10;4.70;;;2.30;;
17648;SDS011;8943;51.110;-4.158;2022-09-13T09:08:42;7.43;;;2.57;;
17648;SDS011;8943;51.110;-4.158;2022-09-13T09:11:18;4.63;;;2.77;;
17648;SDS011;8943;51.110;-4.158;2022-09-13T09:13:58;5.13;;;2.43;;
17648;SDS011;8943;51.110;-4.158;2022-09-13T09:16:35;3.93;;;1.90;;
17648;SDS011;8943;51.110;-4.158;2022-09-13T09:19:14;6.67;;;2.03;;
17648;SDS011;8943;51.110;-4.158;2022-09-13T09:21:49;8.70;;;2.30;;
17648;SDS011;8943;51.110;-4.158;2022-09-13T09:24:19;5.17;;;1.70;;
17648;SDS011;8943;51.110;-4.158;2022-09-13T09:26:51;7.53;;;2.13;;
17648;SDS011;8943;51.110;-4.158;2022-09-13T09:29:22;3.70;;;1.60;;
17648;SDS011;8943;51.110;-4.158;2022-09-13T09:31:58;4.43;;;1.97;;
17648;SDS011;8943;51.110;-4.158;2022-09-13T09:34:40;5.50;;;1.87;;
17648;SDS011;8943;51.110;-4.158;2022-09-13T09:37:18;4.53;;;1.37;;
17648;SDS011;8943;51.110;-4.158;2022-09-13T09:39:58;10.03;;;1.77;;
17648;SDS011;8943;51.110;-4.158;2022-09-13T09:45:59;4.67;;;1.50;;
17648;SDS011;8943;51.110;-4.158;2022-09-13T09:48:32;5.37;;;1.40;;
17648;SDS011;8943;51.110;-4.158;2022-09-13T09:53:56;6.73;;;1.97;;
17648;SDS011;8943;51.110;-4.158;2022-09-13T09:56:31;7.00;;;2.03;;
17648;SDS011;8943;51.110;-4.158;2022-09-13T09:59:02;7.10;;;2.97;;
17648;SDS011;8943;51.110;-4.158;2022-09-13T10:04:29;4.77;;;1.90;;
17648;SDS011;8943;51.110;-4.158;2022-09-13T10:07:22;3.90;;;1.40;;
17648;SDS011;8943;51.110;-4.158;2022-09-13T10:10:04;4.70;;;1.60;;
17648;SDS011;8943;51.110;-4.158;2022-09-13T10:16:45;6.83;;;1.70;;
17648;SDS011;8943;51.110;-4.158;2022-09-13T10:19:32;3.40;;;1.60;;
17648;SDS011;8943;51.110;-4.158;2022-09-13T10:22:14;5.50;;;1.67;;
17648;SDS011;8943;51.110;-4.158;2022-09-13T10:24:44;6.37;;;1.90;;
17648;SDS011;8943;51.110;-4.158;2022-09-13T10:27:17;3.77;;;1.43;;
17648;SDS011;8943;51.110;-4.158;2022-09-13T10:29:50;7.57;;;1.97;;
17648;SDS011;8943;51.110;-4.158;2022-09-13T10:32:22;2.77;;;1.30;;
17648;SDS011;8943;51.110;-4.158;2022-09-13T10:34:53;7.80;;;2.00;;
17648;SDS011;8943;51.110;-4.158;2022-09-13T10:37:25;6.83;;;1.90;;
17648;SDS011;8943;51.110;-4.158;2022-09-13T10:40:00;3.57;;;1.67;;
17648;SDS011;8943;51.110;-4.158;2022-09-13T10:42:33;4.47;;;1.87;;
17648;SDS011;8943;51.110;-4.158;2022-09-13T10:45:03;4.50;;;1.70;;
17648;SDS011;8943;51.110;-4.158;2022-09-13T10:47:33;5.33;;;2.00;;
17648;SDS011;8943;51.110;-4.158;2022-09-13T10:50:17;6.93;;;2.17;;
17648;SDS011;8943;51.110;-4.158;2022-09-13T10:52:47;10.37;;;2.00;;
17648;SDS011;8943;51.110;-4.158;2022-09-13T10:55:23;9.13;;;1.50;;
17648;SDS011;8943;51.110;-4.158;2022-09-13T10:58:14;3.10;;;1.57;;
17648;SDS011;8943;51.110;-4.158;2022-09-13T11:00:47;6.47;;;1.70;;
17648;SDS011;8943;51.110;-4.158;2022-09-13T11:03:31;2.70;;;1.30;;
17648;SDS011;8943;51.110;-4.158;2022-09-13T11:06:14;2.37;;;1.20;;
17648;SDS011;8943;51.110;-4.158;2022-09-13T11:08:49;5.13;;;1.30;;
17648;SDS011;8943;51.110;-4.158;2022-09-13T11:11:24;3.17;;;1.00;;
17648;SDS011;8943;51.110;-4.158;2022-09-13T11:14:01;4.00;;;1.73;;
17648;SDS011;8943;51.110;-4.158;2022-09-13T11:16:45;2.50;;;1.27;;
17648;SDS011;8943;51.110;-4.158;2022-09-13T11:22:38;2.87;;;1.37;;
17648;SDS011;8943;51.110;-4.158;2022-09-13T11:25:25;4.27;;;1.67;;
17648;SDS011;8943;51.110;-4.158;2022-09-13T11:28:05;5.23;;;1.57;;
17648;SDS011;8943;51.110;-4.158;2022-09-13T11:30:44;6.17;;;2.27;;
17648;SDS011;8943;51.110;-4.158;2022-09-13T11:33:30;2.10;;;1.40;;
17648;SDS011;8943;51.110;-4.158;2022-09-13T11:36:14;8.13;;;2.00;;
17648;SDS011;8943;51.110;-4.158;2022-09-13T11:39:05;2.87;;;1.40;;
17648;SDS011;8943;51.110;-4.158;2022-09-13T11:41:42;4.53;;;1.23;;
17648;SDS011;8943;51.110;-4.158;2022-09-13T11:44:28;4.10;;;1.60;;
17648;SDS011;8943;51.110;-4.158;2022-09-13T11:47:07;5.50;;;1.60;;
17648;SDS011;8943;51.110;-4.158;2022-09-13T11:49:48;3.37;;;1.53;;
17648;SDS011;8943;51.110;-4.158;2022-09-13T11:52:27;6.40;;;1.43;;
17648;SDS011;8943;51.110;-4.158;2022-09-13T11:55:12;4.97;;;1.87;;
17648;SDS011;8943;51.110;-4.158;2022-09-13T11:57:45;6.27;;;2.30;;
17648;SDS011;8943;51.110;-4.158;2022-09-13T12:00:20;5.17;;;2.13;;
17648;SDS011;8943;51.110;-4.158;2022-09-13T12:02:53;5.03;;;2.00;;
17648;SDS011;8943;51.110;-4.158;2022-09-13T12:05:26;4.83;;;1.87;;
17648;SDS011;8943;51.110;-4.158;2022-09-13T12:08:00;2.43;;;1.60;;
17648;SDS011;8943;51.110;-4.158;2022-09-13T12:10:36;5.43;;;1.40;;
17648;SDS011;8943;51.110;-4.158;2022-09-13T12:13:09;4.30;;;1.67;;
17648;SDS011;8943;51.110;-4.158;2022-09-13T12:15:45;4.30;;;1.53;;
17648;SDS011;8943;51.110;-4.158;2022-09-13T12:18:17;5.27;;;1.50;;
17648;SDS011;8943;51.110;-4.158;2022-09-13T12:20:51;4.33;;;1.43;;
17648;SDS011;8943;51.110;-4.158;2022-09-13T12:23:23;7.23;;;1.67;;
17648;SDS011;8943;51.110;-4.158;2022-09-13T12:25:59;4.50;;;1.30;;
17648;SDS011;8943;51.110;-4.158;2022-09-13T12:28:31;4.53;;;1.60;;
17648;SDS011;8943;51.110;-4.158;2022-09-13T12:31:06;4.47;;;1.60;;
17648;SDS011;8943;51.110;-4.158;2022-09-13T12:33:38;5.67;;;1.50;;
17648;SDS011;8943;51.110;-4.158;2022-09-13T12:39:38;3.83;;;1.60;;
17648;SDS011;8943;51.110;-4.158;2022-09-13T12:45:34;4.47;;;1.30;;
17648;SDS011;8943;51.110;-4.158;2022-09-13T12:48:19;3.27;;;1.67;;
17648;SDS011;8943;51.110;-4.158;2022-09-13T12:51:04;4.20;;;1.80;;
17648;SDS011;8943;51.110;-4.158;2022-09-13T13:02:43;4.33;;;1.40;;
17648;SDS011;8943;51.110;-4.158;2022-09-13T13:05:23;5.00;;;1.57;;
17648;SDS011;8943;51.110;-4.158;2022-09-13T13:07:56;9.10;;;1.70;;
17648;SDS011;8943;51.110;-4.158;2022-09-13T13:10:27;3.77;;;1.60;;
17648;SDS011;8943;51.110;-4.158;2022-09-13T13:13:13;3.93;;;1.60;;
17648;SDS011;8943;51.110;-4.158;2022-09-13T13:15:57;3.47;;;1.40;;
17648;SDS011;8943;51.110;-4.158;2022-09-13T13:18:29;8.73;;;2.20;;
17648;SDS011;8943;51.110;-4.158;2022-09-13T13:33:17;6.80;;;2.60;;
17648;SDS011;8943;51.110;-4.158;2022-09-13T13:35:47;4.07;;;1.70;;
17648;SDS011;8943;51.110;-4.158;2022-09-13T13:38:30;6.53;;;2.33;;
17648;SDS011;8943;51.110;-4.158;2022-09-13T13:50:30;7.40;;;2.03;;
17648;SDS011;8943;51.110;-4.158;2022-09-13T13:53:18;4.47;;;2.00;;
17648;SDS011;8943;51.110;-4.158;2022-09-13T13:56:03;5.43;;;2.20;;
17648;SDS011;8943;51.110;-4.158;2022-09-13T13:58:36;4.97;;;2.17;;
17648;SDS011;8943;51.110;-4.158;2022-09-13T14:01:13;4.03;;;2.13;;
17648;SDS011;8943;51.110;-4.158;2022-09-13T14:06:48;5.93;;;2.57;;
17648;SDS011;8943;51.110;-4.158;2022-09-13T14:09:34;8.23;;;3.20;;
17648;SDS011;8943;51.110;-4.158;2022-09-13T14:12:14;7.60;;;3.53;;
17648;SDS011;8943;51.110;-4.158;2022-09-13T14:15:01;7.47;;;2.40;;
17648;SDS011;8943;51.110;-4.158;2022-09-13T14:18:01;5.50;;;2.13;;
17648;SDS011;8943;51.110;-4.158;2022-09-13T14:21:08;3.87;;;1.90;;
17648;SDS011;8943;51.110;-4.158;2022-09-13T14:23:48;5.53;;;1.77;;
17648;SDS011;8943;51.110;-4.158;2022-09-13T14:26:18;6.60;;;1.90;;
17648;SDS011;8943;51.110;-4.158;2022-09-13T14:28:48;4.33;;;1.80;;
17648;SDS011;8943;51.110;-4.158;2022-09-13T14:31:17;5.00;;;1.50;;
17648;SDS011;8943;51.110;-4.158;2022-09-13T14:33:46;5.80;;;1.93;;
17648;SDS011;8943;51.110;-4.158;2022-09-13T14:36:17;5.30;;;1.97;;
17648;SDS011;8943;51.110;-4.158;2022-09-13T14:38:48;6.60;;;1.80;;
17648;SDS011;8943;51.110;-4.158;2022-09-13T14:41:21;5.10;;;1.90;;
17648;SDS011;8943;51.110;-4.158;2022-09-13T14:44:13;5.63;;;1.50;;
17648;SDS011;8943;51.110;-4.158;2022-09-13T14:46:54;4.60;;;2.00;;
17648;SDS011;8943;51.110;-4.158;2022-09-13T14:49:40;4.93;;;1.43;;
17648;SDS011;8943;51.110;-4.158;2022-09-13T14:52:16;4.90;;;1.57;;
17648;SDS011;8943;51.110;-4.158;2022-09-13T14:55:00;3.13;;;1.50;;
17648;SDS011;8943;51.110;-4.158;2022-09-13T14:57:36;4.70;;;1.70;;
17648;SDS011;8943;51.110;-4.158;2022-09-13T15:00:16;2.13;;;1.20;;
17648;SDS011;8943;51.110;-4.158;2022-09-13T15:02:47;3.27;;;1.47;;
17648;SDS011;8943;51.110;-4.158;2022-09-13T15:05:18;1.77;;;1.30;;
17648;SDS011;8943;51.110;-4.158;2022-09-13T15:07:59;2.93;;;1.47;;
17648;SDS011;8943;51.110;-4.158;2022-09-13T15:10:49;4.07;;;1.30;;
17648;SDS011;8943;51.110;-4.158;2022-09-13T15:13:17;6.27;;;1.40;;
17648;SDS011;8943;51.110;-4.158;2022-09-13T15:15:47;4.90;;;1.63;;
17648;SDS011;8943;51.110;-4.158;2022-09-13T15:18:24;4.90;;;1.70;;
17648;SDS011;8943;51.110;-4.158;2022-09-13T15:21:02;5.70;;;1.73;;
17648;SDS011;8943;51.110;-4.158;2022-09-13T15:23:33;2.83;;;1.50;;
17648;SDS011;8943;51.110;-4.158;2022-09-13T15:26:09;4.40;;;1.77;;
17648;SDS011;8943;51.110;-4.158;2022-09-13T15:28:45;4.17;;;1.53;;
17648;SDS011;8943;51.110;-4.158;2022-09-13T15:31:19;4.97;;;1.47;;
17648;SDS011;8943;51.110;-4.158;2022-09-13T15:36:47;4.63;;;2.37;;
17648;SDS011;8943;51.110;-4.158;2022-09-13T15:39:28;4.63;;;2.60;;
17648;SDS011;8943;51.110;-4.158;2022-09-13T15:41:59;4.60;;;3.17;;
17648;SDS011;8943;51.110;-4.158;2022-09-13T15:44:27;6.40;;;3.00;;
17648;SDS011;8943;51.110;-4.158;2022-09-13T15:46:59;7.70;;;3.20;;
17648;SDS011;8943;51.110;-4.158;2022-09-13T15:49:31;7.47;;;2.93;;
17648;SDS011;8943;51.110;-4.158;2022-09-13T15:52:01;4.90;;;2.40;;
17648;SDS011;8943;51.110;-4.158;2022-09-13T15:54:32;5.93;;;3.03;;
17648;SDS011;8943;51.110;-4.158;2022-09-13T15:57:05;4.97;;;2.73;;
17648;SDS011;8943;51.110;-4.158;2022-09-13T15:59:35;4.73;;;2.63;;
17648;SDS011;8943;51.110;-4.158;2022-09-13T16:02:14;7.30;;;2.50;;
17648;SDS011;8943;51.110;-4.158;2022-09-13T16:04:46;5.93;;;3.30;;
17648;SDS011;8943;51.110;-4.158;2022-09-13T16:07:15;5.10;;;3.03;;
17648;SDS011;8943;51.110;-4.158;2022-09-13T16:09:45;7.10;;;3.20;;
17648;SDS011;8943;51.110;-4.158;2022-09-13T16:12:16;5.07;;;2.53;;
17648;SDS011;8943;51.110;-4.158;2022-09-13T16:14:47;5.40;;;2.97;;
17648;SDS011;8943;51.110;-4.158;2022-09-13T16:17:18;7.43;;;3.03;;
17648;SDS011;8943;51.110;-4.158;2022-09-13T16:19:47;8.03;;;2.43;;
17648;SDS011;8943;51.110;-4.158;2022-09-13T16:22:16;5.20;;;2.07;;
17648;SDS011;8943;51.110;-4.158;2022-09-13T16:24:44;4.97;;;2.03;;
17648;SDS011;8943;51.110;-4.158;2022-09-13T16:27:13;2.17;;;1.60;;
17648;SDS011;8943;51.110;-4.158;2022-09-13T16:30:00;5.57;;;2.70;;
17648;SDS011;8943;51.110;-4.158;2022-09-13T16:32:29;4.60;;;1.93;;